sensor_id;sensor_type;location;lat;lon;timestamp;temperature;humidity
12853;DHT22;6495;51.808;7.478;2024-01-16T00:01:12;1.70;99.90
12853;DHT22;6495;51.808;7.478;2024-01-16T00:03:42;1.70;99.90
12853;DHT22;6495;51.808;7.478;2024-01-16T00:06:11;1.70;99.90
12853;DHT22;6495;51.808;7.478;2024-01-16T00:08:41;1.80;99.90
12853;DHT22;6495;51.808;7.478;2024-01-16T00:11:10;1.70;99.90
12853;DHT22;6495;51.808;7.478;2024-01-16T00:13:38;1.70;99.90
12853;DHT22;6495;51.808;7.478;2024-01-16T00:16:06;1.70;99.90
12853;DHT22;6495;51.808;7.478;2024-01-16T00:18:35;1.70;99.90
12853;DHT22;6495;51.808;7.478;2024-01-16T00:21:05;1.70;99.90
12853;DHT22;6495;51.808;7.478;2024-01-16T00:23:33;1.70;99.90
12853;DHT22;6495;51.808;7.478;2024-01-16T00:26:02;1.70;99.90
12853;DHT22;6495;51.808;7.478;2024-01-16T00:28:31;1.70;99.90
12853;DHT22;6495;51.808;7.478;2024-01-16T00:31:00;1.70;99.90
12853;DHT22;6495;51.808;7.478;2024-01-16T00:33:29;1.80;99.90
12853;DHT22;6495;51.808;7.478;2024-01-16T00:35:57;1.70;99.90
12853;DHT22;6495;51.808;7.478;2024-01-16T00:38:27;1.70;99.90
12853;DHT22;6495;51.808;7.478;2024-01-16T00:40:55;1.70;99.90
12853;DHT22;6495;51.808;7.478;2024-01-16T00:43:24;1.70;99.90
12853;DHT22;6495;51.808;7.478;2024-01-16T00:45:52;1.70;99.90
12853;DHT22;6495;51.808;7.478;2024-01-16T00:48:21;1.70;99.90
12853;DHT22;6495;51.808;7.478;2024-01-16T00:50:49;1.70;99.90
12853;DHT22;6495;51.808;7.478;2024-01-16T00:53:18;1.70;99.90
12853;DHT22;6495;51.808;7.478;2024-01-16T00:55:48;1.70;99.90
12853;DHT22;6495;51.808;7.478;2024-01-16T00:58:17;1.70;99.90
12853;DHT22;6495;51.808;7.478;2024-01-16T01:00:45;1.70;99.90
12853;DHT22;6495;51.808;7.478;2024-01-16T01:03:14;1.70;99.90
12853;DHT22;6495;51.808;7.478;2024-01-16T01:05:42;1.70;99.90
12853;DHT22;6495;51.808;7.478;2024-01-16T01:08:11;1.70;99.90
12853;DHT22;6495;51.808;7.478;2024-01-16T01:10:39;1.70;99.90
12853;DHT22;6495;51.808;7.478;2024-01-16T01:13:09;1.70;99.90
12853;DHT22;6495;51.808;7.478;2024-01-16T01:15:38;1.70;99.90
12853;DHT22;6495;51.808;7.478;2024-01-16T01:18:06;1.70;99.90
12853;DHT22;6495;51.808;7.478;2024-01-16T01:20:35;1.70;99.90
12853;DHT22;6495;51.808;7.478;2024-01-16T01:23:04;1.70;99.90
12853;DHT22;6495;51.808;7.478;2024-01-16T01:25:32;1.60;99.90
12853;DHT22;6495;51.808;7.478;2024-01-16T01:28:00;1.60;99.90
12853;DHT22;6495;51.808;7.478;2024-01-16T01:30:31;1.60;99.90
12853;DHT22;6495;51.808;7.478;2024-01-16T01:33:00;1.60;99.90
12853;DHT22;6495;51.808;7.478;2024-01-16T01:35:29;1.60;99.90
12853;DHT22;6495;51.808;7.478;2024-01-16T01:37:58;1.60;99.90
12853;DHT22;6495;51.808;7.478;2024-01-16T01:40:26;1.60;99.90
12853;DHT22;6495;51.808;7.478;2024-01-16T01:42:54;1.60;99.90
12853;DHT22;6495;51.808;7.478;2024-01-16T01:45:23;1.60;99.90
12853;DHT22;6495;51.808;7.478;2024-01-16T01:47:53;1.60;99.90
12853;DHT22;6495;51.808;7.478;2024-01-16T01:50:21;1.60;99.90
12853;DHT22;6495;51.808;7.478;2024-01-16T01:52:50;1.60;99.90
12853;DHT22;6495;51.808;7.478;2024-01-16T01:55:19;1.60;99.90
12853;DHT22;6495;51.808;7.478;2024-01-16T01:57:47;1.60;99.90
12853;DHT22;6495;51.808;7.478;2024-01-16T02:00:16;1.60;99.90
12853;DHT22;6495;51.808;7.478;2024-01-16T02:02:45;1.60;99.90
12853;DHT22;6495;51.808;7.478;2024-01-16T02:05:16;1.60;99.90
12853;DHT22;6495;51.808;7.478;2024-01-16T02:07:44;1.60;99.90
12853;DHT22;6495;51.808;7.478;2024-01-16T02:10:13;1.60;99.90
12853;DHT22;6495;51.808;7.478;2024-01-16T02:12:42;1.60;99.90
12853;DHT22;6495;51.808;7.478;2024-01-16T02:15:10;1.60;99.90
12853;DHT22;6495;51.808;7.478;2024-01-16T02:17:39;1.60;99.90
12853;DHT22;6495;51.808;7.478;2024-01-16T02:20:08;1.60;99.90
12853;DHT22;6495;51.808;7.478;2024-01-16T02:22:39;1.50;99.90
12853;DHT22;6495;51.808;7.478;2024-01-16T02:25:15;1.50;99.90
12853;DHT22;6495;51.808;7.478;2024-01-16T02:27:43;1.50;99.90
12853;DHT22;6495;51.808;7.478;2024-01-16T02:30:12;1.50;99.90
12853;DHT22;6495;51.808;7.478;2024-01-16T02:32:41;1.50;99.90
12853;DHT22;6495;51.808;7.478;2024-01-16T02:35:09;1.50;99.90
12853;DHT22;6495;51.808;7.478;2024-01-16T02:37:38;1.50;99.90
12853;DHT22;6495;51.808;7.478;2024-01-16T02:40:07;1.50;99.90
12853;DHT22;6495;51.808;7.478;2024-01-16T02:42:37;1.50;99.90
12853;DHT22;6495;51.808;7.478;2024-01-16T02:45:06;1.50;99.90
12853;DHT22;6495;51.808;7.478;2024-01-16T02:47:35;1.50;99.90
12853;DHT22;6495;51.808;7.478;2024-01-16T02:50:05;1.50;99.90
12853;DHT22;6495;51.808;7.478;2024-01-16T02:52:36;1.50;99.90
12853;DHT22;6495;51.808;7.478;2024-01-16T02:55:06;1.50;99.90
12853;DHT22;6495;51.808;7.478;2024-01-16T02:57:36;1.50;99.90
12853;DHT22;6495;51.808;7.478;2024-01-16T03:00:06;1.50;99.90
12853;DHT22;6495;51.808;7.478;2024-01-16T03:02:35;1.50;99.90
12853;DHT22;6495;51.808;7.478;2024-01-16T03:05:04;1.50;99.90
12853;DHT22;6495;51.808;7.478;2024-01-16T03:07:34;1.50;99.90
12853;DHT22;6495;51.808;7.478;2024-01-16T03:10:02;1.50;99.90
12853;DHT22;6495;51.808;7.478;2024-01-16T03:12:31;1.50;99.90
12853;DHT22;6495;51.808;7.478;2024-01-16T03:15:01;1.50;99.90
12853;DHT22;6495;51.808;7.478;2024-01-16T03:17:29;1.50;99.90
12853;DHT22;6495;51.808;7.478;2024-01-16T03:19:58;1.50;99.90
12853;DHT22;6495;51.808;7.478;2024-01-16T03:22:26;1.50;99.90
12853;DHT22;6495;51.808;7.478;2024-01-16T03:24:54;1.50;99.90
12853;DHT22;6495;51.808;7.478;2024-01-16T03:27:23;1.50;99.90
12853;DHT22;6495;51.808;7.478;2024-01-16T03:29:52;1.50;99.90
12853;DHT22;6495;51.808;7.478;2024-01-16T03:32:21;1.50;99.90
12853;DHT22;6495;51.808;7.478;2024-01-16T03:34:50;1.50;99.90
12853;DHT22;6495;51.808;7.478;2024-01-16T03:37:19;1.50;99.90
12853;DHT22;6495;51.808;7.478;2024-01-16T03:39:47;1.50;99.90
12853;DHT22;6495;51.808;7.478;2024-01-16T03:42:16;1.50;99.90
12853;DHT22;6495;51.808;7.478;2024-01-16T03:44:45;1.50;99.90
12853;DHT22;6495;51.808;7.478;2024-01-16T03:47:13;1.50;99.90
12853;DHT22;6495;51.808;7.478;2024-01-16T03:49:43;1.50;99.90
12853;DHT22;6495;51.808;7.478;2024-01-16T03:52:11;1.50;99.90
12853;DHT22;6495;51.808;7.478;2024-01-16T03:54:40;1.50;99.90
12853;DHT22;6495;51.808;7.478;2024-01-16T03:57:08;1.50;99.90
12853;DHT22;6495;51.808;7.478;2024-01-16T03:59:37;1.40;99.90
12853;DHT22;6495;51.808;7.478;2024-01-16T04:02:07;1.40;99.90
12853;DHT22;6495;51.808;7.478;2024-01-16T04:04:36;1.40;99.90
12853;DHT22;6495;51.808;7.478;2024-01-16T04:07:05;1.40;99.90
12853;DHT22;6495;51.808;7.478;2024-01-16T04:09:33;1.40;99.90
12853;DHT22;6495;51.808;7.478;2024-01-16T04:12:02;1.40;99.90
12853;DHT22;6495;51.808;7.478;2024-01-16T04:14:30;1.40;99.90
12853;DHT22;6495;51.808;7.478;2024-01-16T04:16:59;1.40;99.90
12853;DHT22;6495;51.808;7.478;2024-01-16T04:19:27;1.40;99.90
12853;DHT22;6495;51.808;7.478;2024-01-16T04:22:00;1.40;99.90
12853;DHT22;6495;51.808;7.478;2024-01-16T04:24:30;1.40;99.90
12853;DHT22;6495;51.808;7.478;2024-01-16T04:26:58;1.40;99.90
12853;DHT22;6495;51.808;7.478;2024-01-16T04:29:27;1.40;99.90
12853;DHT22;6495;51.808;7.478;2024-01-16T04:31:55;1.40;99.90
12853;DHT22;6495;51.808;7.478;2024-01-16T04:34:24;1.40;99.90
12853;DHT22;6495;51.808;7.478;2024-01-16T04:36:52;1.40;99.90
12853;DHT22;6495;51.808;7.478;2024-01-16T04:39:21;1.40;99.90
12853;DHT22;6495;51.808;7.478;2024-01-16T04:41:51;1.40;99.90
12853;DHT22;6495;51.808;7.478;2024-01-16T04:44:19;1.50;99.90
12853;DHT22;6495;51.808;7.478;2024-01-16T04:46:48;1.50;99.90
12853;DHT22;6495;51.808;7.478;2024-01-16T04:49:16;1.50;99.90
12853;DHT22;6495;51.808;7.478;2024-01-16T04:51:44;1.50;99.90
12853;DHT22;6495;51.808;7.478;2024-01-16T04:54:14;1.40;99.90
12853;DHT22;6495;51.808;7.478;2024-01-16T04:56:42;1.50;99.90
12853;DHT22;6495;51.808;7.478;2024-01-16T04:59:12;1.50;99.90
12853;DHT22;6495;51.808;7.478;2024-01-16T05:01:42;1.50;99.90
12853;DHT22;6495;51.808;7.478;2024-01-16T05:04:11;1.50;99.90
12853;DHT22;6495;51.808;7.478;2024-01-16T05:06:39;1.50;99.90
12853;DHT22;6495;51.808;7.478;2024-01-16T05:09:08;1.50;99.90
12853;DHT22;6495;51.808;7.478;2024-01-16T05:11:37;1.50;99.90
12853;DHT22;6495;51.808;7.478;2024-01-16T05:14:06;1.50;99.90
12853;DHT22;6495;51.808;7.478;2024-01-16T05:16:35;1.50;99.90
12853;DHT22;6495;51.808;7.478;2024-01-16T05:19:04;1.50;99.90
12853;DHT22;6495;51.808;7.478;2024-01-16T05:21:32;1.50;99.90
12853;DHT22;6495;51.808;7.478;2024-01-16T05:24:02;1.50;99.90
12853;DHT22;6495;51.808;7.478;2024-01-16T05:26:30;1.50;99.90
12853;DHT22;6495;51.808;7.478;2024-01-16T05:28:59;1.50;99.90
12853;DHT22;6495;51.808;7.478;2024-01-16T05:31:27;1.50;99.90
12853;DHT22;6495;51.808;7.478;2024-01-16T05:33:57;1.50;99.90
12853;DHT22;6495;51.808;7.478;2024-01-16T05:36:27;1.50;99.90
12853;DHT22;6495;51.808;7.478;2024-01-16T05:38:55;1.50;99.90
12853;DHT22;6495;51.808;7.478;2024-01-16T05:41:23;1.50;99.90
12853;DHT22;6495;51.808;7.478;2024-01-16T05:43:52;1.50;99.90
12853;DHT22;6495;51.808;7.478;2024-01-16T05:46:20;1.60;99.90
12853;DHT22;6495;51.808;7.478;2024-01-16T05:48:49;1.50;99.90
12853;DHT22;6495;51.808;7.478;2024-01-16T05:51:20;1.60;99.90
12853;DHT22;6495;51.808;7.478;2024-01-16T05:53:48;1.60;99.90
12853;DHT22;6495;51.808;7.478;2024-01-16T05:56:17;1.50;99.90
12853;DHT22;6495;51.808;7.478;2024-01-16T05:58:46;1.50;99.90
12853;DHT22;6495;51.808;7.478;2024-01-16T06:01:14;1.60;99.90
12853;DHT22;6495;51.808;7.478;2024-01-16T06:03:56;1.60;99.90
12853;DHT22;6495;51.808;7.478;2024-01-16T06:06:26;1.50;99.90
12853;DHT22;6495;51.808;7.478;2024-01-16T06:08:54;1.60;99.90
12853;DHT22;6495;51.808;7.478;2024-01-16T06:11:29;1.60;99.90
12853;DHT22;6495;51.808;7.478;2024-01-16T06:13:58;1.60;99.90
12853;DHT22;6495;51.808;7.478;2024-01-16T06:16:27;1.60;99.90
12853;DHT22;6495;51.808;7.478;2024-01-16T06:19:08;1.60;99.90
12853;DHT22;6495;51.808;7.478;2024-01-16T06:21:55;1.60;99.90
12853;DHT22;6495;51.808;7.478;2024-01-16T06:24:51;1.60;99.90
12853;DHT22;6495;51.808;7.478;2024-01-16T06:27:19;1.50;99.90
12853;DHT22;6495;51.808;7.478;2024-01-16T06:29:48;1.50;99.90
12853;DHT22;6495;51.808;7.478;2024-01-16T06:32:17;1.60;99.90
12853;DHT22;6495;51.808;7.478;2024-01-16T06:34:46;1.50;99.90
12853;DHT22;6495;51.808;7.478;2024-01-16T06:37:16;1.60;99.90
12853;DHT22;6495;51.808;7.478;2024-01-16T06:39:44;1.50;99.90
12853;DHT22;6495;51.808;7.478;2024-01-16T06:42:13;1.50;99.90
12853;DHT22;6495;51.808;7.478;2024-01-16T06:44:41;1.50;99.90
12853;DHT22;6495;51.808;7.478;2024-01-16T06:47:09;1.50;99.90
12853;DHT22;6495;51.808;7.478;2024-01-16T06:49:38;1.50;99.90
12853;DHT22;6495;51.808;7.478;2024-01-16T06:52:08;1.50;99.90
12853;DHT22;6495;51.808;7.478;2024-01-16T06:54:38;1.50;99.90
12853;DHT22;6495;51.808;7.478;2024-01-16T06:57:06;1.50;99.90
12853;DHT22;6495;51.808;7.478;2024-01-16T06:59:35;1.50;99.90
12853;DHT22;6495;51.808;7.478;2024-01-16T07:02:03;1.50;99.90
12853;DHT22;6495;51.808;7.478;2024-01-16T07:04:31;1.50;99.90
12853;DHT22;6495;51.808;7.478;2024-01-16T07:07:00;1.50;99.90
12853;DHT22;6495;51.808;7.478;2024-01-16T07:09:29;1.50;99.90
12853;DHT22;6495;51.808;7.478;2024-01-16T07:11:59;1.50;99.90
12853;DHT22;6495;51.808;7.478;2024-01-16T07:14:27;1.50;99.90
12853;DHT22;6495;51.808;7.478;2024-01-16T07:16:55;1.50;99.90
12853;DHT22;6495;51.808;7.478;2024-01-16T07:19:24;1.50;99.90
12853;DHT22;6495;51.808;7.478;2024-01-16T07:21:52;1.50;99.90
12853;DHT22;6495;51.808;7.478;2024-01-16T07:24:21;1.50;99.90
12853;DHT22;6495;51.808;7.478;2024-01-16T07:26:49;1.50;99.90
12853;DHT22;6495;51.808;7.478;2024-01-16T07:29:19;1.50;99.90
12853;DHT22;6495;51.808;7.478;2024-01-16T07:31:48;1.50;99.90
12853;DHT22;6495;51.808;7.478;2024-01-16T07:34:16;1.50;99.90
12853;DHT22;6495;51.808;7.478;2024-01-16T07:36:48;1.50;99.90
12853;DHT22;6495;51.808;7.478;2024-01-16T07:39:17;1.50;99.90
12853;DHT22;6495;51.808;7.478;2024-01-16T07:41:45;1.50;99.90
12853;DHT22;6495;51.808;7.478;2024-01-16T07:44:13;1.50;99.90
12853;DHT22;6495;51.808;7.478;2024-01-16T07:46:43;1.50;99.90
12853;DHT22;6495;51.808;7.478;2024-01-16T07:49:12;1.50;99.90
12853;DHT22;6495;51.808;7.478;2024-01-16T07:51:40;1.50;99.90
12853;DHT22;6495;51.808;7.478;2024-01-16T07:54:09;1.50;99.90
12853;DHT22;6495;51.808;7.478;2024-01-16T07:56:40;1.60;99.90
12853;DHT22;6495;51.808;7.478;2024-01-16T07:59:08;1.60;99.90
12853;DHT22;6495;51.808;7.478;2024-01-16T08:01:36;1.60;99.90
12853;DHT22;6495;51.808;7.478;2024-01-16T08:04:06;1.50;99.90
12853;DHT22;6495;51.808;7.478;2024-01-16T08:06:35;1.60;99.90
12853;DHT22;6495;51.808;7.478;2024-01-16T08:09:04;1.50;99.90
12853;DHT22;6495;51.808;7.478;2024-01-16T08:11:33;1.60;99.90
12853;DHT22;6495;51.808;7.478;2024-01-16T08:14:03;1.60;99.90
12853;DHT22;6495;51.808;7.478;2024-01-16T08:16:32;1.60;99.90
12853;DHT22;6495;51.808;7.478;2024-01-16T08:19:03;1.60;99.90
12853;DHT22;6495;51.808;7.478;2024-01-16T08:21:33;1.60;99.90
12853;DHT22;6495;51.808;7.478;2024-01-16T08:24:02;1.60;99.90
12853;DHT22;6495;51.808;7.478;2024-01-16T08:26:30;1.50;99.90
12853;DHT22;6495;51.808;7.478;2024-01-16T08:28:59;1.60;99.90
12853;DHT22;6495;51.808;7.478;2024-01-16T08:31:27;1.60;99.90
12853;DHT22;6495;51.808;7.478;2024-01-16T08:33:56;1.60;99.90
12853;DHT22;6495;51.808;7.478;2024-01-16T08:36:24;1.60;99.90
12853;DHT22;6495;51.808;7.478;2024-01-16T08:38:54;1.60;99.90
12853;DHT22;6495;51.808;7.478;2024-01-16T08:41:23;1.60;99.90
12853;DHT22;6495;51.808;7.478;2024-01-16T08:43:51;1.60;99.90
12853;DHT22;6495;51.808;7.478;2024-01-16T08:46:21;1.60;99.90
12853;DHT22;6495;51.808;7.478;2024-01-16T08:48:50;1.60;99.90
12853;DHT22;6495;51.808;7.478;2024-01-16T08:54:16;1.60;99.90
12853;DHT22;6495;51.808;7.478;2024-01-16T08:56:45;1.70;99.90
12853;DHT22;6495;51.808;7.478;2024-01-16T08:59:13;1.60;99.90
12853;DHT22;6495;51.808;7.478;2024-01-16T09:01:42;1.70;99.90
12853;DHT22;6495;51.808;7.478;2024-01-16T09:04:10;1.70;99.90
12853;DHT22;6495;51.808;7.478;2024-01-16T09:06:39;1.70;99.90
12853;DHT22;6495;51.808;7.478;2024-01-16T09:09:08;1.70;99.90
12853;DHT22;6495;51.808;7.478;2024-01-16T09:11:38;1.70;99.90
12853;DHT22;6495;51.808;7.478;2024-01-16T09:14:06;1.70;99.90
12853;DHT22;6495;51.808;7.478;2024-01-16T09:16:35;1.70;99.90
12853;DHT22;6495;51.808;7.478;2024-01-16T09:19:04;1.70;99.90
12853;DHT22;6495;51.808;7.478;2024-01-16T09:21:33;1.70;99.90
12853;DHT22;6495;51.808;7.478;2024-01-16T09:24:01;1.70;99.90
12853;DHT22;6495;51.808;7.478;2024-01-16T09:26:30;1.70;99.90
12853;DHT22;6495;51.808;7.478;2024-01-16T09:29:00;1.70;99.90
12853;DHT22;6495;51.808;7.478;2024-01-16T09:31:29;1.70;99.90
12853;DHT22;6495;51.808;7.478;2024-01-16T09:33:57;1.70;99.90
12853;DHT22;6495;51.808;7.478;2024-01-16T09:36:26;1.70;99.90
12853;DHT22;6495;51.808;7.478;2024-01-16T09:38:54;1.70;99.90
12853;DHT22;6495;51.808;7.478;2024-01-16T09:41:23;1.70;99.90
12853;DHT22;6495;51.808;7.478;2024-01-16T09:43:52;1.70;99.90
12853;DHT22;6495;51.808;7.478;2024-01-16T09:46:23;1.70;99.90
12853;DHT22;6495;51.808;7.478;2024-01-16T09:48:55;1.70;99.90
12853;DHT22;6495;51.808;7.478;2024-01-16T09:51:24;1.70;99.90
12853;DHT22;6495;51.808;7.478;2024-01-16T09:53:52;1.70;99.90
12853;DHT22;6495;51.808;7.478;2024-01-16T09:56:22;1.70;99.90
12853;DHT22;6495;51.808;7.478;2024-01-16T09:58:56;1.70;99.90
12853;DHT22;6495;51.808;7.478;2024-01-16T10:01:31;1.60;99.90
12853;DHT22;6495;51.808;7.478;2024-01-16T10:04:01;1.70;99.90
12853;DHT22;6495;51.808;7.478;2024-01-16T10:06:32;1.60;99.90
12853;DHT22;6495;51.808;7.478;2024-01-16T10:09:03;1.60;99.90
12853;DHT22;6495;51.808;7.478;2024-01-16T10:11:33;1.60;99.90
12853;DHT22;6495;51.808;7.478;2024-01-16T10:14:02;1.60;99.90
12853;DHT22;6495;51.808;7.478;2024-01-16T10:16:57;1.60;99.90
12853;DHT22;6495;51.808;7.478;2024-01-16T10:19:30;1.60;99.90
12853;DHT22;6495;51.808;7.478;2024-01-16T10:22:19;1.60;99.90
12853;DHT22;6495;51.808;7.478;2024-01-16T10:25:04;1.60;99.90
12853;DHT22;6495;51.808;7.478;2024-01-16T10:27:33;1.60;99.90
12853;DHT22;6495;51.808;7.478;2024-01-16T10:30:02;1.60;99.90
12853;DHT22;6495;51.808;7.478;2024-01-16T10:32:36;1.60;99.90
12853;DHT22;6495;51.808;7.478;2024-01-16T10:35:07;1.60;99.90
12853;DHT22;6495;51.808;7.478;2024-01-16T10:37:42;1.60;99.90
12853;DHT22;6495;51.808;7.478;2024-01-16T10:40:15;1.60;99.90
12853;DHT22;6495;51.808;7.478;2024-01-16T10:42:46;1.60;99.90
12853;DHT22;6495;51.808;7.478;2024-01-16T10:45:24;1.60;99.90
12853;DHT22;6495;51.808;7.478;2024-01-16T10:48:00;1.60;99.90
12853;DHT22;6495;51.808;7.478;2024-01-16T10:50:31;1.60;99.90
12853;DHT22;6495;51.808;7.478;2024-01-16T10:53:04;1.60;99.90
12853;DHT22;6495;51.808;7.478;2024-01-16T10:55:37;1.60;99.90
12853;DHT22;6495;51.808;7.478;2024-01-16T10:58:13;1.60;99.90
12853;DHT22;6495;51.808;7.478;2024-01-16T11:00:43;1.60;99.90
12853;DHT22;6495;51.808;7.478;2024-01-16T11:03:24;1.60;99.90
12853;DHT22;6495;51.808;7.478;2024-01-16T11:05:57;1.60;99.90
12853;DHT22;6495;51.808;7.478;2024-01-16T11:08:27;1.70;99.90
12853;DHT22;6495;51.808;7.478;2024-01-16T11:11:00;1.60;99.90
12853;DHT22;6495;51.808;7.478;2024-01-16T11:13:32;1.70;99.90
12853;DHT22;6495;51.808;7.478;2024-01-16T11:16:03;1.70;99.90
12853;DHT22;6495;51.808;7.478;2024-01-16T11:18:34;1.70;99.90
12853;DHT22;6495;51.808;7.478;2024-01-16T11:21:06;1.70;99.90
12853;DHT22;6495;51.808;7.478;2024-01-16T11:23:42;1.70;99.90
12853;DHT22;6495;51.808;7.478;2024-01-16T11:26:26;1.70;99.90
12853;DHT22;6495;51.808;7.478;2024-01-16T11:28:56;1.70;99.90
12853;DHT22;6495;51.808;7.478;2024-01-16T11:31:30;1.70;99.90
12853;DHT22;6495;51.808;7.478;2024-01-16T11:34:01;1.70;99.90
12853;DHT22;6495;51.808;7.478;2024-01-16T11:36:49;1.70;99.90
12853;DHT22;6495;51.808;7.478;2024-01-16T11:39:22;1.70;99.90
12853;DHT22;6495;51.808;7.478;2024-01-16T11:42:02;1.70;99.90
12853;DHT22;6495;51.808;7.478;2024-01-16T11:44:41;1.80;99.90
12853;DHT22;6495;51.808;7.478;2024-01-16T11:47:16;1.80;99.90
12853;DHT22;6495;51.808;7.478;2024-01-16T11:49:47;1.80;99.90
12853;DHT22;6495;51.808;7.478;2024-01-16T11:52:39;1.80;99.90
12853;DHT22;6495;51.808;7.478;2024-01-16T11:55:25;1.80;99.90
12853;DHT22;6495;51.808;7.478;2024-01-16T11:58:08;1.80;99.90
12853;DHT22;6495;51.808;7.478;2024-01-16T12:00:54;1.80;99.90
12853;DHT22;6495;51.808;7.478;2024-01-16T12:03:24;1.80;99.90
12853;DHT22;6495;51.808;7.478;2024-01-16T12:06:03;1.80;99.90
12853;DHT22;6495;51.808;7.478;2024-01-16T12:08:34;1.80;99.90
12853;DHT22;6495;51.808;7.478;2024-01-16T12:11:04;1.90;99.90
12853;DHT22;6495;51.808;7.478;2024-01-16T12:13:33;1.90;99.90
12853;DHT22;6495;51.808;7.478;2024-01-16T12:16:01;1.90;99.90
12853;DHT22;6495;51.808;7.478;2024-01-16T12:18:32;2.00;99.90
12853;DHT22;6495;51.808;7.478;2024-01-16T12:21:12;2.00;99.90
12853;DHT22;6495;51.808;7.478;2024-01-16T12:23:43;2.10;99.90
12853;DHT22;6495;51.808;7.478;2024-01-16T12:26:25;2.10;99.90
12853;DHT22;6495;51.808;7.478;2024-01-16T12:28:54;2.20;99.90
12853;DHT22;6495;51.808;7.478;2024-01-16T12:31:26;2.20;99.90
12853;DHT22;6495;51.808;7.478;2024-01-16T12:34:04;2.30;99.90
12853;DHT22;6495;51.808;7.478;2024-01-16T12:36:37;2.40;99.90
12853;DHT22;6495;51.808;7.478;2024-01-16T12:39:06;2.40;99.90
12853;DHT22;6495;51.808;7.478;2024-01-16T12:41:41;2.50;99.90
12853;DHT22;6495;51.808;7.478;2024-01-16T12:44:13;2.50;99.90
12853;DHT22;6495;51.808;7.478;2024-01-16T12:46:44;2.50;99.90
12853;DHT22;6495;51.808;7.478;2024-01-16T12:49:24;2.60;99.90
12853;DHT22;6495;51.808;7.478;2024-01-16T12:52:14;2.60;99.90
12853;DHT22;6495;51.808;7.478;2024-01-16T12:54:43;2.60;99.90
12853;DHT22;6495;51.808;7.478;2024-01-16T12:57:17;2.60;99.90
12853;DHT22;6495;51.808;7.478;2024-01-16T12:59:47;2.70;99.90
12853;DHT22;6495;51.808;7.478;2024-01-16T13:02:21;2.70;99.90
12853;DHT22;6495;51.808;7.478;2024-01-16T13:04:58;2.70;99.90
12853;DHT22;6495;51.808;7.478;2024-01-16T13:07:30;2.70;99.90
12853;DHT22;6495;51.808;7.478;2024-01-16T13:10:07;2.70;99.90
12853;DHT22;6495;51.808;7.478;2024-01-16T13:12:38;2.80;99.90
12853;DHT22;6495;51.808;7.478;2024-01-16T13:15:08;2.80;99.90
12853;DHT22;6495;51.808;7.478;2024-01-16T13:17:38;2.90;99.90
12853;DHT22;6495;51.808;7.478;2024-01-16T13:20:07;2.90;99.90
12853;DHT22;6495;51.808;7.478;2024-01-16T13:22:39;2.90;99.90
12853;DHT22;6495;51.808;7.478;2024-01-16T13:25:13;3.00;99.90
12853;DHT22;6495;51.808;7.478;2024-01-16T13:27:42;3.00;99.90
12853;DHT22;6495;51.808;7.478;2024-01-16T13:30:12;3.00;99.90
12853;DHT22;6495;51.808;7.478;2024-01-16T13:32:41;3.00;99.90
12853;DHT22;6495;51.808;7.478;2024-01-16T13:35:10;3.00;99.90
12853;DHT22;6495;51.808;7.478;2024-01-16T13:37:40;3.00;99.90
12853;DHT22;6495;51.808;7.478;2024-01-16T13:40:09;3.10;99.90
12853;DHT22;6495;51.808;7.478;2024-01-16T13:42:42;3.10;99.90
12853;DHT22;6495;51.808;7.478;2024-01-16T13:45:10;3.00;99.90
12853;DHT22;6495;51.808;7.478;2024-01-16T13:47:40;3.10;99.90
12853;DHT22;6495;51.808;7.478;2024-01-16T13:50:09;3.10;99.90
12853;DHT22;6495;51.808;7.478;2024-01-16T13:52:40;3.10;99.90
12853;DHT22;6495;51.808;7.478;2024-01-16T13:55:09;3.10;99.90
12853;DHT22;6495;51.808;7.478;2024-01-16T13:57:38;3.10;99.90
12853;DHT22;6495;51.808;7.478;2024-01-16T14:00:08;3.10;99.90
12853;DHT22;6495;51.808;7.478;2024-01-16T14:02:40;3.00;99.90
12853;DHT22;6495;51.808;7.478;2024-01-16T14:05:10;3.10;99.90
12853;DHT22;6495;51.808;7.478;2024-01-16T14:07:40;3.00;99.90
12853;DHT22;6495;51.808;7.478;2024-01-16T14:10:09;3.00;99.90
12853;DHT22;6495;51.808;7.478;2024-01-16T14:12:39;3.00;99.90
12853;DHT22;6495;51.808;7.478;2024-01-16T14:15:10;3.00;99.90
12853;DHT22;6495;51.808;7.478;2024-01-16T14:17:46;3.00;99.90
12853;DHT22;6495;51.808;7.478;2024-01-16T14:20:16;3.00;99.90
12853;DHT22;6495;51.808;7.478;2024-01-16T14:22:54;3.00;99.90
12853;DHT22;6495;51.808;7.478;2024-01-16T14:25:23;2.90;99.90
12853;DHT22;6495;51.808;7.478;2024-01-16T14:27:57;3.00;99.90
12853;DHT22;6495;51.808;7.478;2024-01-16T14:30:27;2.90;99.90
12853;DHT22;6495;51.808;7.478;2024-01-16T14:32:57;2.90;99.90
12853;DHT22;6495;51.808;7.478;2024-01-16T14:35:25;2.90;99.90
12853;DHT22;6495;51.808;7.478;2024-01-16T14:37:55;2.90;99.90
12853;DHT22;6495;51.808;7.478;2024-01-16T14:40:24;2.90;99.90
12853;DHT22;6495;51.808;7.478;2024-01-16T14:42:54;2.80;99.90
12853;DHT22;6495;51.808;7.478;2024-01-16T14:45:24;2.80;99.90
12853;DHT22;6495;51.808;7.478;2024-01-16T14:47:54;2.80;99.90
12853;DHT22;6495;51.808;7.478;2024-01-16T14:50:23;2.80;99.90
12853;DHT22;6495;51.808;7.478;2024-01-16T14:52:52;2.80;99.90
12853;DHT22;6495;51.808;7.478;2024-01-16T14:55:33;2.80;99.90
12853;DHT22;6495;51.808;7.478;2024-01-16T14:58:21;2.70;99.90
12853;DHT22;6495;51.808;7.478;2024-01-16T15:00:56;2.70;99.90
12853;DHT22;6495;51.808;7.478;2024-01-16T15:03:41;2.70;99.90
12853;DHT22;6495;51.808;7.478;2024-01-16T15:06:33;2.60;99.90
12853;DHT22;6495;51.808;7.478;2024-01-16T15:09:08;2.60;99.90
12853;DHT22;6495;51.808;7.478;2024-01-16T15:11:47;2.60;99.90
12853;DHT22;6495;51.808;7.478;2024-01-16T15:14:20;2.60;99.90
12853;DHT22;6495;51.808;7.478;2024-01-16T15:17:16;2.60;99.90
12853;DHT22;6495;51.808;7.478;2024-01-16T15:24:48;2.60;99.90
12853;DHT22;6495;51.808;7.478;2024-01-16T15:27:26;2.50;99.90
12853;DHT22;6495;51.808;7.478;2024-01-16T15:30:05;2.50;99.90
12853;DHT22;6495;51.808;7.478;2024-01-16T15:32:40;2.50;99.90
12853;DHT22;6495;51.808;7.478;2024-01-16T15:35:24;2.50;99.90
12853;DHT22;6495;51.808;7.478;2024-01-16T15:38:02;2.50;99.90
12853;DHT22;6495;51.808;7.478;2024-01-16T15:40:36;2.40;99.90
12853;DHT22;6495;51.808;7.478;2024-01-16T15:43:22;2.40;99.90
12853;DHT22;6495;51.808;7.478;2024-01-16T15:46:12;2.40;99.90
12853;DHT22;6495;51.808;7.478;2024-01-16T15:48:43;2.30;99.90
12853;DHT22;6495;51.808;7.478;2024-01-16T15:51:22;2.30;99.90
12853;DHT22;6495;51.808;7.478;2024-01-16T15:54:01;2.30;99.90
12853;DHT22;6495;51.808;7.478;2024-01-16T15:57:02;2.30;99.90
12853;DHT22;6495;51.808;7.478;2024-01-16T15:59:47;2.30;99.90
12853;DHT22;6495;51.808;7.478;2024-01-16T16:02:24;2.30;99.90
12853;DHT22;6495;51.808;7.478;2024-01-16T16:04:56;2.30;99.90
12853;DHT22;6495;51.808;7.478;2024-01-16T16:07:29;2.20;99.90
12853;DHT22;6495;51.808;7.478;2024-01-16T16:09:58;2.20;99.90
12853;DHT22;6495;51.808;7.478;2024-01-16T16:12:39;2.20;99.90
12853;DHT22;6495;51.808;7.478;2024-01-16T16:15:13;2.20;99.90
12853;DHT22;6495;51.808;7.478;2024-01-16T16:17:52;2.20;99.90
12853;DHT22;6495;51.808;7.478;2024-01-16T16:20:27;2.20;99.90
12853;DHT22;6495;51.808;7.478;2024-01-16T16:23:10;2.10;99.90
12853;DHT22;6495;51.808;7.478;2024-01-16T16:25:45;2.10;99.90
12853;DHT22;6495;51.808;7.478;2024-01-16T16:28:15;2.10;99.90
12853;DHT22;6495;51.808;7.478;2024-01-16T16:30:58;2.10;99.90
12853;DHT22;6495;51.808;7.478;2024-01-16T16:33:49;2.10;99.90
12853;DHT22;6495;51.808;7.478;2024-01-16T16:36:24;2.10;99.90